Aegean Viii — SXKO — position and weather

sailwx.info

Track history (hours):
 
Tides and Currents Weather Stations Pressure Air Temp Water Temp Dewpoint Dewpoint Depression Visibility Wind Speed Wind Dir Waves Ship Positions

Aegean Viii

Last reported at 2017-Feb-20 17:33 UTC. Time now 2017-Feb-20 18:32 UTC.
Position N 38°02' E 023°32'.

Length 12 m; draft 3.8 m.

Type: Tanker. MMSI: 240732000.

Date/timePositionNaut miles runAvg speedWind from/ knotsBaromVisibWave heightAir tempDewpointWater temp
2017-Feb-20 17:33N 38°02' E 023°32'3 2.9
2017-Feb-20 16:33N 38°02' E 023°36'0 0.0
2017-Feb-20 15:33N 38°02' E 023°36'0 0.0
2017-Feb-20 14:33N 38°02' E 023°36'0 0.0
2017-Feb-20 13:33N 38°02' E 023°36'1 0.9
2017-Feb-20 12:33N 38°01' E 023°35'0 0.1
2017-Feb-20 11:32N 38°01' E 023°35'2 1.7
2017-Feb-20 10:32N 38°00' E 023°33'3 3.1
2017-Feb-20 09:33N 37°57' E 023°35'0 0.0
2017-Feb-20 08:33N 37°57' E 023°35'0 0.0
2017-Feb-20 07:33N 37°57' E 023°35'2 2.1
2017-Feb-20 06:33N 37°58' E 023°33'4 3.9
2017-Feb-20 05:33N 38°02' E 023°32'0 0.0
2017-Feb-20 04:33N 38°02' E 023°32'0 0.0
2017-Feb-20 03:32N 38°02' E 023°32'0 0.0
2017-Feb-19 14:33N 38°02' E 023°32'6 5.9
2017-Feb-19 13:33N 37°57' E 023°36'0 0.2
2017-Feb-19 12:33N 37°58' E 023°36'1 0.8
2017-Feb-19 11:33N 37°57' E 023°36'2 2.4
2017-Feb-19 10:33N 37°56' E 023°33'0 0.0
2017-Feb-19 09:33N 37°56' E 023°33'1 1.4
2017-Feb-19 08:33N 37°54' E 023°32'0 0.1
2017-Feb-19 07:33N 37°54' E 023°32'6 5.6
2017-Feb-19 06:33N 37°60' E 023°33'2 2.4
2017-Feb-19 05:34N 38°02' E 023°32'0 0.0
2017-Feb-19 04:33N 38°02' E 023°32'0 0.0
2017-Feb-19 03:33N 38°02' E 023°32'0 0.0
2017-Feb-18 17:34N 38°02' E 023°32'0 0.1
2017-Feb-18 16:33N 38°02' E 023°32'8 7.7
2017-Feb-18 15:32N 37°55' E 023°33'4 4.0
2017-Feb-18 14:34N 37°52' E 023°30'0 0.0
2017-Feb-18 13:32N 37°52' E 023°30'4 3.8
2017-Feb-18 12:33N 37°55' E 023°33'7 6.9
2017-Feb-18 11:33N 38°02' E 023°32'1 0.0
2017-Feb-17 19:33N 38°02' E 023°32'3 3.0
2017-Feb-17 18:33N 38°02' E 023°36'0 0.0
2017-Feb-17 17:33N 38°02' E 023°36'0 0.0
2017-Feb-17 16:33N 38°02' E 023°36'0 0.0
2017-Feb-17 15:33N 38°02' E 023°36'1 0.8
2017-Feb-17 14:34N 38°02' E 023°35'0 0.0
2017-Feb-17 13:33N 38°02' E 023°35'0 0.0
2017-Feb-17 12:33N 38°02' E 023°35'0 0.0
2017-Feb-17 11:33N 38°02' E 023°35'0 0.0
2017-Feb-17 10:33N 38°02' E 023°35'0 0.0
2017-Feb-17 09:33N 38°02' E 023°35'0 0.1
2017-Feb-17 08:33N 38°02' E 023°35'2 2.2
2017-Feb-17 07:33N 38°02' E 023°32'0 0.0
2017-Feb-17 06:33N 38°02' E 023°32'0 0.0
2017-Feb-17 05:33N 38°02' E 023°32'0 0.0
2017-Feb-16 12:17N 38°02' E 023°32'0 0.0
2017-Feb-16 11:33N 38°02' E 023°32'0 0.0
2017-Feb-16 10:34N 38°02' E 023°32'0 0.0
2017-Feb-16 09:34N 38°02' E 023°32'0 0.0
2017-Feb-16 08:33N 38°02' E 023°32'0 0.0
2017-Feb-16 07:33N 38°02' E 023°32'0 0.0
2017-Feb-16 06:33N 38°02' E 023°32'0 0.0
2017-Feb-16 05:33N 38°02' E 023°32'0 0.0
2017-Feb-15 19:33N 38°02' E 023°32'5 5.1
2017-Feb-15 18:33N 37°57' E 023°34'1 0.6
2017-Feb-15 17:33N 37°57' E 023°35'0 0.0
2017-Feb-15 16:33N 37°57' E 023°35'0 0.0
2017-Feb-15 15:34N 37°57' E 023°35'0 0.0
2017-Feb-15 14:33N 37°57' E 023°35'0 0.4
2017-Feb-15 13:33N 37°57' E 023°34'3 2.6
2017-Feb-15 12:33N 37°60' E 023°33'3 2.7
2017-Feb-15 11:33N 38°02' E 023°32'0 0.0
2017-Feb-15 10:33N 38°02' E 023°32'0 0.0
2017-Feb-15 09:33N 38°02' E 023°32'0 0.0
2017-Feb-15 03:33N 38°02' E 023°32'5 4.8
2017-Feb-15 02:34N 37°60' E 023°27'7 6.7
2017-Feb-15 01:33N 37°54' E 023°23'8 7.7
2017-Feb-15 00:34N 37°52' E 023°32'0 0.0
2017-Feb-14 23:33N 37°51' E 023°32'0 0.0
2017-Feb-14 22:33N 37°52' E 023°32'0 0.0
2017-Feb-14 21:33N 37°51' E 023°32'0 0.0
2017-Feb-14 20:33N 37°51' E 023°32'0 0.0
2017-Feb-14 19:33N 37°51' E 023°32'2 2.0
2017-Feb-14 18:34N 37°53' E 023°33'2 2.4
2017-Feb-14 17:33N 37°56' E 023°34'0 0.0
2017-Feb-14 16:33N 37°56' E 023°34'1 1.3
2017-Feb-14 15:33N 37°57' E 023°34'5 4.9
2017-Feb-14 14:33N 38°02' E 023°36'0 0.0
2017-Feb-14 13:33N 38°02' E 023°36'0 0.0
2017-Feb-14 12:33N 38°02' E 023°36'0 0.0
2017-Feb-14 11:33N 38°02' E 023°36'0 0.5
2017-Feb-14 10:33N 38°02' E 023°35'0 0.0
2017-Feb-14 09:33N 38°02' E 023°35'0 0.1
2017-Feb-14 08:33N 38°02' E 023°35'1 0.5
2017-Feb-14 07:33N 38°02' E 023°35'0 0.0
2017-Feb-14 06:31N 38°02' E 023°35'1 0.5
2017-Feb-14 05:33N 38°02' E 023°35'2 2.2
2017-Feb-14 04:33N 38°02' E 023°32'0 0.0
2017-Feb-13 12:10N 38°02' E 023°32'0 0.0
2017-Feb-13 11:33N 38°02' E 023°32'0 0.0
2017-Feb-13 10:33N 38°02' E 023°32'0 0.0
2017-Feb-13 09:33N 38°02' E 023°32'0 0.0
2017-Feb-13 08:33N 38°02' E 023°32'0 0.0
2017-Feb-13 07:33N 38°02' E 023°32'0 0.0
2017-Feb-13 06:34N 38°02' E 023°32'0 0.0
2017-Feb-12 16:07N 38°02' E 023°32'0 0.6
2017-Feb-12 15:33N 38°02' E 023°32'1 0.7
2017-Feb-12 14:33N 38°02' E 023°31'0 0.0
2017-Feb-12 13:33N 38°02' E 023°31'0 0.0
2017-Feb-12 12:33N 38°02' E 023°31'1 0.7
2017-Feb-12 11:34N 38°02' E 023°31'1 0.7
2017-Feb-12 10:34N 38°02' E 023°32'3 2.7
2017-Feb-12 09:33N 38°02' E 023°36'0 0.0
2017-Feb-12 08:33N 38°02' E 023°36'0 0.0
2017-Feb-12 07:33N 38°02' E 023°36'0 0.0
2017-Feb-12 06:34N 38°02' E 023°36'1 0.8
2017-Feb-12 05:33N 38°01' E 023°35'2 2.3
2017-Feb-12 04:33N 38°02' E 023°32'0 0.0
2017-Feb-12 03:33N 38°02' E 023°32'  
Track history (hours):
 
Tides and Currents Weather Stations Pressure Air Temp Water Temp Dewpoint Dewpoint Depression Visibility Wind Speed Wind Dir Waves Ship Positions

Aegean Viii

Last reported at 2017-Feb-20 17:33 UTC. Time now 2017-Feb-20 18:32 UTC.
Position N 38°02' E 023°32'.

Length 12 m; draft 3.8 m.

Type: Tanker. MMSI: 240732000.

Date/timePositionNaut miles runAvg speedWind from/ knotsBaromVisibWave heightAir tempDewpointWater temp
2017-Feb-20 17:33N 38°02' E 023°32'3 2.9
2017-Feb-20 16:33N 38°02' E 023°36'0 0.0
2017-Feb-20 15:33N 38°02' E 023°36'0 0.0
2017-Feb-20 14:33N 38°02' E 023°36'0 0.0
2017-Feb-20 13:33N 38°02' E 023°36'1 0.9
2017-Feb-20 12:33N 38°01' E 023°35'0 0.1
2017-Feb-20 11:32N 38°01' E 023°35'2 1.7
2017-Feb-20 10:32N 38°00' E 023°33'3 3.1
2017-Feb-20 09:33N 37°57' E 023°35'0 0.0
2017-Feb-20 08:33N 37°57' E 023°35'0 0.0
2017-Feb-20 07:33N 37°57' E 023°35'2 2.1
2017-Feb-20 06:33N 37°58' E 023°33'4 3.9
2017-Feb-20 05:33N 38°02' E 023°32'0 0.0
2017-Feb-20 04:33N 38°02' E 023°32'0 0.0
2017-Feb-20 03:32N 38°02' E 023°32'0 0.0
2017-Feb-19 14:33N 38°02' E 023°32'6 5.9
2017-Feb-19 13:33N 37°57' E 023°36'0 0.2
2017-Feb-19 12:33N 37°58' E 023°36'1 0.8
2017-Feb-19 11:33N 37°57' E 023°36'2 2.4
2017-Feb-19 10:33N 37°56' E 023°33'0 0.0
2017-Feb-19 09:33N 37°56' E 023°33'1 1.4
2017-Feb-19 08:33N 37°54' E 023°32'0 0.1
2017-Feb-19 07:33N 37°54' E 023°32'6 5.6
2017-Feb-19 06:33N 37°60' E 023°33'2 2.4
2017-Feb-19 05:34N 38°02' E 023°32'0 0.0
2017-Feb-19 04:33N 38°02' E 023°32'0 0.0
2017-Feb-19 03:33N 38°02' E 023°32'0 0.0
2017-Feb-18 17:34N 38°02' E 023°32'0 0.1
2017-Feb-18 16:33N 38°02' E 023°32'8 7.7
2017-Feb-18 15:32N 37°55' E 023°33'4 4.0
2017-Feb-18 14:34N 37°52' E 023°30'0 0.0
2017-Feb-18 13:32N 37°52' E 023°30'4 3.8
2017-Feb-18 12:33N 37°55' E 023°33'7 6.9
2017-Feb-18 11:33N 38°02' E 023°32'1 0.0
2017-Feb-17 19:33N 38°02' E 023°32'3 3.0
2017-Feb-17 18:33N 38°02' E 023°36'0 0.0
2017-Feb-17 17:33N 38°02' E 023°36'0 0.0
2017-Feb-17 16:33N 38°02' E 023°36'0 0.0
2017-Feb-17 15:33N 38°02' E 023°36'1 0.8
2017-Feb-17 14:34N 38°02' E 023°35'0 0.0
2017-Feb-17 13:33N 38°02' E 023°35'0 0.0
2017-Feb-17 12:33N 38°02' E 023°35'0 0.0
2017-Feb-17 11:33N 38°02' E 023°35'0 0.0
2017-Feb-17 10:33N 38°02' E 023°35'0 0.0
2017-Feb-17 09:33N 38°02' E 023°35'0 0.1
2017-Feb-17 08:33N 38°02' E 023°35'2 2.2
2017-Feb-17 07:33N 38°02' E 023°32'0 0.0
2017-Feb-17 06:33N 38°02' E 023°32'0 0.0
2017-Feb-17 05:33N 38°02' E 023°32'0 0.0
2017-Feb-16 12:17N 38°02' E 023°32'0 0.0
2017-Feb-16 11:33N 38°02' E 023°32'0 0.0
2017-Feb-16 10:34N 38°02' E 023°32'0 0.0
2017-Feb-16 09:34N 38°02' E 023°32'0 0.0
2017-Feb-16 08:33N 38°02' E 023°32'0 0.0
2017-Feb-16 07:33N 38°02' E 023°32'0 0.0
2017-Feb-16 06:33N 38°02' E 023°32'0 0.0
2017-Feb-16 05:33N 38°02' E 023°32'0 0.0
2017-Feb-15 19:33N 38°02' E 023°32'5 5.1
2017-Feb-15 18:33N 37°57' E 023°34'1 0.6
2017-Feb-15 17:33N 37°57' E 023°35'0 0.0
2017-Feb-15 16:33N 37°57' E 023°35'0 0.0
2017-Feb-15 15:34N 37°57' E 023°35'0 0.0
2017-Feb-15 14:33N 37°57' E 023°35'0 0.4
2017-Feb-15 13:33N 37°57' E 023°34'3 2.6
2017-Feb-15 12:33N 37°60' E 023°33'3 2.7
2017-Feb-15 11:33N 38°02' E 023°32'0 0.0
2017-Feb-15 10:33N 38°02' E 023°32'0 0.0
2017-Feb-15 09:33N 38°02' E 023°32'0 0.0
2017-Feb-15 03:33N 38°02' E 023°32'5 4.8
2017-Feb-15 02:34N 37°60' E 023°27'7 6.7
2017-Feb-15 01:33N 37°54' E 023°23'8 7.7
2017-Feb-15 00:34N 37°52' E 023°32'0 0.0
2017-Feb-14 23:33N 37°51' E 023°32'0 0.0
2017-Feb-14 22:33N 37°52' E 023°32'0 0.0
2017-Feb-14 21:33N 37°51' E 023°32'0 0.0
2017-Feb-14 20:33N 37°51' E 023°32'0 0.0
2017-Feb-14 19:33N 37°51' E 023°32'2 2.0
2017-Feb-14 18:34N 37°53' E 023°33'2 2.4
2017-Feb-14 17:33N 37°56' E 023°34'0 0.0
2017-Feb-14 16:33N 37°56' E 023°34'1 1.3
2017-Feb-14 15:33N 37°57' E 023°34'5 4.9
2017-Feb-14 14:33N 38°02' E 023°36'0 0.0
2017-Feb-14 13:33N 38°02' E 023°36'0 0.0
2017-Feb-14 12:33N 38°02' E 023°36'0 0.0
2017-Feb-14 11:33N 38°02' E 023°36'0 0.5
2017-Feb-14 10:33N 38°02' E 023°35'0 0.0
2017-Feb-14 09:33N 38°02' E 023°35'0 0.1
2017-Feb-14 08:33N 38°02' E 023°35'1 0.5
2017-Feb-14 07:33N 38°02' E 023°35'0 0.0
2017-Feb-14 06:31N 38°02' E 023°35'1 0.5
2017-Feb-14 05:33N 38°02' E 023°35'2 2.2
2017-Feb-14 04:33N 38°02' E 023°32'0 0.0
2017-Feb-13 12:10N 38°02' E 023°32'0 0.0
2017-Feb-13 11:33N 38°02' E 023°32'0 0.0
2017-Feb-13 10:33N 38°02' E 023°32'0 0.0
2017-Feb-13 09:33N 38°02' E 023°32'0 0.0
2017-Feb-13 08:33N 38°02' E 023°32'0 0.0
2017-Feb-13 07:33N 38°02' E 023°32'0 0.0
2017-Feb-13 06:34N 38°02' E 023°32'0 0.0
2017-Feb-12 16:07N 38°02' E 023°32'0 0.6
2017-Feb-12 15:33N 38°02' E 023°32'1 0.7
2017-Feb-12 14:33N 38°02' E 023°31'0 0.0
2017-Feb-12 13:33N 38°02' E 023°31'0 0.0
2017-Feb-12 12:33N 38°02' E 023°31'1 0.7
2017-Feb-12 11:34N 38°02' E 023°31'1 0.7
2017-Feb-12 10:34N 38°02' E 023°32'3 2.7
2017-Feb-12 09:33N 38°02' E 023°36'0 0.0
2017-Feb-12 08:33N 38°02' E 023°36'0 0.0
2017-Feb-12 07:33N 38°02' E 023°36'0 0.0
2017-Feb-12 06:34N 38°02' E 023°36'1 0.8
2017-Feb-12 05:33N 38°01' E 023°35'2 2.3
2017-Feb-12 04:33N 38°02' E 023°32'0 0.0
2017-Feb-12 03:33N 38°02' E 023°32'  

Dump ship's entire track history